createdAt,value
2018-11-14T00:01:12.734Z,8.15
2018-11-14T00:03:42.663Z,8.10
2018-11-14T00:06:12.769Z,8.14
2018-11-14T00:08:41.971Z,8.12
2018-11-14T00:11:12.605Z,8.12
2018-11-14T00:13:42.319Z,7.99
2018-11-14T00:16:12.385Z,8.00
2018-11-14T00:18:42.552Z,7.97
2018-11-14T00:21:12.676Z,7.99
2018-11-14T00:23:42.295Z,7.98
2018-11-14T00:26:13.746Z,7.98
2018-11-14T00:28:44.187Z,8.00
2018-11-14T00:31:15.226Z,7.96
2018-11-14T00:33:45.260Z,7.95
2018-11-14T00:36:15.369Z,7.94
2018-11-14T00:38:45.392Z,7.99
2018-11-14T00:41:15.005Z,7.97
2018-11-14T00:43:45.022Z,7.94
2018-11-14T00:46:14.738Z,7.87
2018-11-14T00:48:44.766Z,7.82
2018-11-14T00:51:15.013Z,7.83
2018-11-14T00:53:45.107Z,7.88
2018-11-14T00:56:14.923Z,7.84
2018-11-14T00:58:45.765Z,7.82
2018-11-14T01:01:15.174Z,7.79
2018-11-14T01:03:44.886Z,7.82
2018-11-14T01:06:14.392Z,7.83
2018-11-14T01:08:43.976Z,7.87
2018-11-14T01:11:14.246Z,7.77
2018-11-14T01:13:44.257Z,7.79
2018-11-14T01:16:14.172Z,7.79
2018-11-14T01:18:43.791Z,7.72
2018-11-14T01:21:13.702Z,7.72
2018-11-14T01:23:43.420Z,7.79
2018-11-14T01:26:13.435Z,7.79
2018-11-14T01:28:42.612Z,7.77
2018-11-14T01:31:12.966Z,7.79
2018-11-14T01:33:43.483Z,7.72
2018-11-14T01:36:13.547Z,7.73
2018-11-14T01:38:43.652Z,7.75
2018-11-14T01:41:13.556Z,7.69
2018-11-14T01:43:43.477Z,7.67
2018-11-14T01:46:12.990Z,7.63
2018-11-14T01:48:42.857Z,7.76
2018-11-14T01:51:12.314Z,7.73
2018-11-14T01:53:41.927Z,7.74
2018-11-14T01:56:11.947Z,7.78
2018-11-14T01:58:42.379Z,7.81
2018-11-14T02:01:11.988Z,7.77
2018-11-14T02:03:42.010Z,7.74
2018-11-14T02:06:11.623Z,7.69
2018-11-14T02:08:41.644Z,7.65
2018-11-14T02:11:11.457Z,7.60
2018-11-14T02:13:41.687Z,7.58
2018-11-14T02:16:11.713Z,7.55
2018-11-14T02:18:41.734Z,7.54
2018-11-14T02:21:12.046Z,7.50
2018-11-14T02:23:41.775Z,7.48
2018-11-14T02:26:11.184Z,7.44
2018-11-14T02:28:40.590Z,7.36
2018-11-14T02:31:11.113Z,7.40
2018-11-14T02:33:41.144Z,7.37
2018-11-14T02:36:10.651Z,7.33
2018-11-14T02:38:40.673Z,7.32
2018-11-14T02:41:10.468Z,7.26
2018-11-14T02:43:40.202Z,7.22
2018-11-14T02:46:09.814Z,7.11
2018-11-14T02:48:39.537Z,7.04
2018-11-14T02:51:20.815Z,7.03
2018-11-14T02:53:50.935Z,7.03
2018-11-14T02:56:20.957Z,6.99
2018-11-14T02:58:50.156Z,6.80
2018-11-14T03:01:19.733Z,6.84
2018-11-14T03:03:49.890Z,6.88
2018-11-14T03:06:20.079Z,6.89
2018-11-14T03:08:49.933Z,6.83
2018-11-14T03:11:20.211Z,6.70
2018-11-14T03:13:50.015Z,6.56
2018-11-14T03:16:20.099Z,6.33
2018-11-14T03:18:49.593Z,6.24
2018-11-14T03:21:19.214Z,6.30
2018-11-14T03:23:48.831Z,6.28
2018-11-14T03:26:18.949Z,6.37
2018-11-14T03:28:48.889Z,6.46
2018-11-14T03:31:20.017Z,6.44
2018-11-14T03:33:50.036Z,6.38
2018-11-14T03:36:21.601Z,6.35
2018-11-14T03:38:51.809Z,6.34
2018-11-14T03:41:22.043Z,6.44
2018-11-14T03:43:52.215Z,6.42
2018-11-14T03:46:21.978Z,6.41
2018-11-14T03:48:52.204Z,6.42
2018-11-14T03:51:21.881Z,6.50
2018-11-14T03:53:51.527Z,6.46
2018-11-14T03:56:20.747Z,6.43
2018-11-14T03:58:51.015Z,6.33
2018-11-14T04:01:20.769Z,6.32
2018-11-14T04:03:50.893Z,6.30
2018-11-14T04:06:20.299Z,6.30
2018-11-14T04:08:49.805Z,6.30
2018-11-14T04:11:19.316Z,6.26
2018-11-14T04:13:49.107Z,6.22
2018-11-14T04:16:18.774Z,6.22
2018-11-14T04:18:48.719Z,6.24
2018-11-14T04:21:18.891Z,6.16
2018-11-14T04:23:50.546Z,6.24
2018-11-14T04:26:20.472Z,6.25
2018-11-14T04:28:50.795Z,6.30
2018-11-14T04:31:20.710Z,6.26
2018-11-14T04:33:50.221Z,6.29
2018-11-14T04:36:20.727Z,6.25
2018-11-14T04:38:50.777Z,6.23
2018-11-14T04:41:21.194Z,6.22
2018-11-14T04:43:51.231Z,6.08
2018-11-14T04:46:20.917Z,6.13
2018-11-14T04:48:50.956Z,6.16
2018-11-14T04:51:21.909Z,6.25
2018-11-14T04:53:51.243Z,6.19
2018-11-14T04:56:20.822Z,6.13
2018-11-14T04:58:50.949Z,6.20
2018-11-14T05:01:21.585Z,6.16
2018-11-14T05:03:51.198Z,6.16
2018-11-14T05:06:21.592Z,6.15
2018-11-14T05:08:51.237Z,6.14
2018-11-14T05:11:21.327Z,6.11
2018-11-14T05:13:50.807Z,6.06
2018-11-14T05:16:20.891Z,6.06
2018-11-14T05:18:51.118Z,6.03
2018-11-14T05:21:20.975Z,6.09
2018-11-14T05:23:50.953Z,6.09
2018-11-14T05:26:20.903Z,6.11
2018-11-14T05:28:50.695Z,6.11
2018-11-14T05:31:20.452Z,6.04
2018-11-14T05:33:50.124Z,6.11
2018-11-14T05:36:19.925Z,6.07
2018-11-14T05:38:49.857Z,6.09
2018-11-14T05:41:19.366Z,6.11
2018-11-14T05:43:48.772Z,6.12
2018-11-14T05:46:19.077Z,6.15
2018-11-14T05:48:48.716Z,6.18
2018-11-14T05:51:20.385Z,6.18
2018-11-14T05:53:50.129Z,6.18
2018-11-14T05:56:19.465Z,6.19
2018-11-14T05:58:49.117Z,6.20
2018-11-14T06:01:19.339Z,6.20
2018-11-14T06:03:48.690Z,6.16
2018-11-14T06:06:18.771Z,6.23
2018-11-14T06:08:47.969Z,6.20
2018-11-14T06:11:17.281Z,6.22
2018-11-14T06:13:46.985Z,6.19
2018-11-14T06:16:16.493Z,6.18
2018-11-14T06:18:46.312Z,6.15
2018-11-14T06:21:15.635Z,6.04
2018-11-14T06:23:45.654Z,5.99
2018-11-14T06:26:15.357Z,5.86
2018-11-14T06:28:45.271Z,5.83
2018-11-14T06:31:14.779Z,5.85
2018-11-14T06:33:44.456Z,5.97
2018-11-14T06:36:14.004Z,5.90
2018-11-14T06:38:43.925Z,5.84
2018-11-14T06:41:13.538Z,5.84
2018-11-14T06:43:42.944Z,5.81
2018-11-14T06:46:12.512Z,5.77
2018-11-14T06:48:41.927Z,5.65
2018-11-14T06:51:11.918Z,5.63
2018-11-14T06:53:41.599Z,5.60
2018-11-14T06:56:11.721Z,5.55
2018-11-14T06:58:41.314Z,5.59
2018-11-14T07:01:11.461Z,5.53
2018-11-14T07:03:40.868Z,5.41
2018-11-14T07:06:10.473Z,5.32
2018-11-14T07:08:40.984Z,5.50
2018-11-14T07:11:10.458Z,5.43
2018-11-14T07:13:39.930Z,5.52
2018-11-14T07:16:09.954Z,5.57
2018-11-14T07:18:39.667Z,5.62
2018-11-14T07:21:09.456Z,5.57
2018-11-14T07:23:39.025Z,5.68
2018-11-14T07:26:08.442Z,5.76
2018-11-14T07:28:38.019Z,5.86
2018-11-14T07:31:07.627Z,5.86
2018-11-14T07:33:37.171Z,5.98
2018-11-14T07:36:06.889Z,6.02
2018-11-14T07:38:39.436Z,6.04
2018-11-14T07:41:10.786Z,6.00
2018-11-14T07:43:40.945Z,6.16
2018-11-14T07:46:11.247Z,6.26
2018-11-14T07:48:41.052Z,6.26
2018-11-14T07:51:10.669Z,6.41
2018-11-14T07:53:40.020Z,6.50
2018-11-14T07:56:09.589Z,6.55
2018-11-14T07:58:38.996Z,6.64
2018-11-14T08:01:08.816Z,6.69
2018-11-14T08:03:39.037Z,6.75
2018-11-14T08:06:08.755Z,6.85
2018-11-14T08:08:38.941Z,6.90
2018-11-14T08:11:10.173Z,6.93
2018-11-14T08:13:41.071Z,7.00
2018-11-14T08:16:10.680Z,6.99
2018-11-14T08:18:40.303Z,7.04
2018-11-14T08:21:09.909Z,7.09
2018-11-14T08:23:40.243Z,7.10
2018-11-14T08:26:10.464Z,7.19
2018-11-14T08:28:39.976Z,7.27
2018-11-14T08:31:09.383Z,7.30
2018-11-14T08:33:39.099Z,7.34
2018-11-14T08:36:09.006Z,7.44
2018-11-14T08:38:38.526Z,7.46
2018-11-14T08:41:08.001Z,7.54
2018-11-14T08:43:37.760Z,7.59
2018-11-14T08:46:07.776Z,7.66
2018-11-14T08:48:37.488Z,7.69
2018-11-14T08:51:07.885Z,7.81
2018-11-14T08:53:37.531Z,7.89
2018-11-14T08:56:07.248Z,8.01
2018-11-14T08:58:36.646Z,8.06
2018-11-14T09:01:06.164Z,8.09
2018-11-14T09:03:35.643Z,8.21
2018-11-14T09:06:06.476Z,8.25
2018-11-14T09:08:36.025Z,8.23
2018-11-14T09:11:06.628Z,8.31
2018-11-14T09:13:36.377Z,8.36
2018-11-14T09:16:06.196Z,8.50
2018-11-14T09:18:35.728Z,8.56
2018-11-14T09:21:06.857Z,8.48
2018-11-14T09:23:36.462Z,8.59
2018-11-14T09:26:06.384Z,8.71
2018-11-14T09:28:35.778Z,8.75
2018-11-14T09:31:06.564Z,8.69
2018-11-14T09:33:36.037Z,8.86
2018-11-14T09:36:06.064Z,8.84
2018-11-14T09:38:35.856Z,8.98
2018-11-14T09:41:06.616Z,9.10
2018-11-14T09:43:36.128Z,9.14
2018-11-14T09:46:08.403Z,9.17
2018-11-14T09:48:38.305Z,9.20
2018-11-14T09:51:07.731Z,9.40
2018-11-14T09:53:37.441Z,9.49
2018-11-14T09:56:07.157Z,9.61
2018-11-14T09:58:36.718Z,9.62
2018-11-14T10:01:08.330Z,9.83
2018-11-14T10:03:37.763Z,9.87
2018-11-14T10:06:07.283Z,10.02
2018-11-14T10:08:37.165Z,9.93
2018-11-14T10:11:07.288Z,10.13
2018-11-14T10:13:36.900Z,10.23
2018-11-14T10:16:06.604Z,10.25
2018-11-14T10:18:36.600Z,10.42
2018-11-14T10:21:07.231Z,10.45
2018-11-14T10:23:37.607Z,10.58
2018-11-14T10:26:08.652Z,10.74
2018-11-14T10:28:38.671Z,10.69
2018-11-14T10:31:08.561Z,10.57
2018-11-14T10:33:38.610Z,10.89
2018-11-14T10:36:08.687Z,10.92
2018-11-14T10:38:40.092Z,11.01
2018-11-14T10:41:10.322Z,11.03
2018-11-14T10:43:40.134Z,11.12
2018-11-14T10:46:10.168Z,11.18
2018-11-14T10:48:39.976Z,11.34
2018-11-14T10:51:10.023Z,11.40
2018-11-14T10:53:39.718Z,11.47
2018-11-14T10:56:09.531Z,11.51
2018-11-14T10:58:39.857Z,11.53
2018-11-14T11:01:15.000Z,11.51
2018-11-14T11:03:49.498Z,11.86
2018-11-14T11:06:35.015Z,11.58
2018-11-14T11:09:14.469Z,11.82
2018-11-14T11:11:49.377Z,11.93
2018-11-14T11:14:42.028Z,11.91
2018-11-14T11:17:16.350Z,12.04
2018-11-14T11:19:46.286Z,12.03
2018-11-14T11:22:16.308Z,11.91
2018-11-14T11:24:46.590Z,12.01
2018-11-14T11:27:16.391Z,12.09
2018-11-14T11:29:45.898Z,12.16
2018-11-14T11:32:16.291Z,12.23
2018-11-14T11:34:46.007Z,12.04
2018-11-14T11:37:15.894Z,12.19
2018-11-14T11:39:45.435Z,12.19
2018-11-14T11:42:15.201Z,12.29
2018-11-14T11:44:45.277Z,12.25
2018-11-14T11:47:14.687Z,12.24
2018-11-14T11:49:44.298Z,12.31
2018-11-14T11:52:14.117Z,12.63
2018-11-14T11:54:43.513Z,12.93
2018-11-14T11:57:13.133Z,12.98
2018-11-14T11:59:42.976Z,12.97
2018-11-14T12:02:12.842Z,12.92
2018-11-14T12:04:42.686Z,12.68
2018-11-14T12:07:11.991Z,12.85
2018-11-14T12:09:48.975Z,12.87
2018-11-14T12:12:19.099Z,13.00
2018-11-14T12:14:49.123Z,13.09
2018-11-14T12:17:18.836Z,13.04
2018-11-14T12:19:48.760Z,13.09
2018-11-14T12:22:19.085Z,12.88
2018-11-14T12:24:48.697Z,12.42
2018-11-14T12:27:18.325Z,12.68
2018-11-14T12:29:47.900Z,13.02
2018-11-14T12:32:18.462Z,13.42
2018-11-14T12:34:48.268Z,12.65
2018-11-14T12:37:18.146Z,12.28
2018-11-14T12:39:47.700Z,12.87
2018-11-14T12:42:17.317Z,12.65
2018-11-14T12:44:47.183Z,13.08
2018-11-14T12:47:16.642Z,12.90
2018-11-14T12:49:46.067Z,12.67
2018-11-14T12:52:15.766Z,12.92
2018-11-14T12:54:45.888Z,12.75
2018-11-14T12:57:15.536Z,13.21
2018-11-14T12:59:45.648Z,13.40
2018-11-14T13:02:15.751Z,13.39
2018-11-14T13:04:45.670Z,13.44
2018-11-14T13:07:15.704Z,12.59
2018-11-14T13:09:44.790Z,12.83
2018-11-14T13:12:20.652Z,12.63
2018-11-14T13:14:50.247Z,13.35
2018-11-14T13:17:19.558Z,13.77
2018-11-14T13:19:49.281Z,12.89
2018-11-14T13:22:19.099Z,13.11
2018-11-14T13:24:48.866Z,12.93
2018-11-14T13:27:18.427Z,13.80
2018-11-14T13:29:48.864Z,14.62
2018-11-14T13:32:18.569Z,15.55
2018-11-14T13:34:48.111Z,15.76
2018-11-14T13:37:18.205Z,14.50
2018-11-14T13:39:47.822Z,13.67
2018-11-14T13:42:17.531Z,15.30
2018-11-14T13:44:47.147Z,15.51
2018-11-14T13:47:17.166Z,15.10
2018-11-14T13:49:46.936Z,14.26
2018-11-14T13:52:16.903Z,14.88
2018-11-14T13:54:46.208Z,14.42
2018-11-14T13:57:15.925Z,14.49
2018-11-14T13:59:46.254Z,14.23
2018-11-14T14:02:16.074Z,13.79
2018-11-14T14:04:46.402Z,13.84
2018-11-14T14:07:16.053Z,13.75
2018-11-14T14:09:46.749Z,13.35
2018-11-14T14:12:16.198Z,13.21
2018-11-14T14:14:45.976Z,13.40
2018-11-14T14:17:15.551Z,13.61
2018-11-14T14:19:45.506Z,13.43
2018-11-14T14:22:14.936Z,13.43
2018-11-14T14:24:44.941Z,13.55
2018-11-14T14:27:15.164Z,13.60
2018-11-14T14:29:45.169Z,13.35
2018-11-14T14:32:14.487Z,12.87
2018-11-14T14:34:44.103Z,12.68
2018-11-14T14:37:13.508Z,12.84
2018-11-14T14:39:42.817Z,12.96
2018-11-14T14:42:12.424Z,12.88
2018-11-14T14:44:42.443Z,12.57
2018-11-14T14:47:11.851Z,12.17
2018-11-14T14:49:41.257Z,12.14
2018-11-14T14:52:11.177Z,12.03
2018-11-14T14:54:40.789Z,11.91
2018-11-14T14:57:10.325Z,11.66
2018-11-14T14:59:40.950Z,11.76
2018-11-14T15:02:10.753Z,11.45
2018-11-14T15:04:40.159Z,11.39
2018-11-14T15:07:09.668Z,11.24
2018-11-14T15:09:39.441Z,11.13
2018-11-14T15:12:08.998Z,11.05
2018-11-14T15:14:38.403Z,10.94
2018-11-14T15:17:08.226Z,10.82
2018-11-14T15:19:37.629Z,10.79
2018-11-14T15:22:08.067Z,10.73
2018-11-14T15:24:37.367Z,10.63
2018-11-14T15:27:07.108Z,10.66
2018-11-14T15:29:36.952Z,10.54
2018-11-14T15:32:06.919Z,10.48
2018-11-14T15:34:36.838Z,10.39
2018-11-14T15:37:06.757Z,10.22
2018-11-14T15:39:36.061Z,10.05
2018-11-14T15:42:07.206Z,9.85
2018-11-14T15:44:36.750Z,9.69
2018-11-14T15:47:06.735Z,9.60
2018-11-14T15:49:36.962Z,9.44
2018-11-14T15:52:07.496Z,9.38
2018-11-14T15:54:37.101Z,9.39
2018-11-14T15:57:06.309Z,9.29
2018-11-14T15:59:35.914Z,9.26
2018-11-14T16:02:06.752Z,9.22
2018-11-14T16:04:37.083Z,9.18
2018-11-14T16:07:07.208Z,9.18
2018-11-14T16:09:36.814Z,9.16
2018-11-14T16:12:07.141Z,9.00
2018-11-14T16:14:38.255Z,8.93
2018-11-14T16:17:08.254Z,8.86
2018-11-14T16:19:37.916Z,8.76
2018-11-14T16:22:07.630Z,8.68
2018-11-14T16:24:37.507Z,8.62
2018-11-14T16:27:07.633Z,8.79
2018-11-14T16:29:37.177Z,8.76
2018-11-14T16:32:06.996Z,8.59
2018-11-14T16:34:36.317Z,8.49
2018-11-14T16:37:06.321Z,8.52
2018-11-14T16:39:36.652Z,8.49
2018-11-14T16:42:06.852Z,8.42
2018-11-14T16:44:37.077Z,8.38
2018-11-14T16:47:07.117Z,8.36
2018-11-14T16:49:37.038Z,8.41
2018-11-14T16:52:07.063Z,8.38
2018-11-14T16:54:36.948Z,8.36
2018-11-14T16:57:06.592Z,8.33
2018-11-14T16:59:37.633Z,8.28
2018-11-14T17:02:07.147Z,8.26
2018-11-14T17:04:37.113Z,8.25
2018-11-14T17:07:06.963Z,8.20
2018-11-14T17:09:39.156Z,8.14
2018-11-14T17:12:09.479Z,8.09
2018-11-14T17:14:38.914Z,8.00
2018-11-14T17:17:08.495Z,7.92
2018-11-14T17:19:38.171Z,7.82
2018-11-14T17:22:08.041Z,7.74
2018-11-14T17:24:37.812Z,7.65
2018-11-14T17:27:07.660Z,7.57
2018-11-14T17:29:37.230Z,7.51
2018-11-14T17:32:06.989Z,7.46
2018-11-14T17:34:36.889Z,7.41
2018-11-14T17:37:07.638Z,7.33
2018-11-14T17:39:37.019Z,7.25
2018-11-14T17:42:07.236Z,7.17
2018-11-14T17:44:37.094Z,7.09
2018-11-14T17:47:07.158Z,7.06
2018-11-14T17:49:36.776Z,6.99
2018-11-14T17:52:06.625Z,6.90
2018-11-14T17:54:36.575Z,6.81
2018-11-14T17:57:06.900Z,6.72
2018-11-14T17:59:36.612Z,6.64
2018-11-14T18:02:07.045Z,6.60
2018-11-14T18:04:37.375Z,6.65
2018-11-14T18:07:07.362Z,6.69
2018-11-14T18:09:37.214Z,6.59
2018-11-14T18:12:07.235Z,6.47
2018-11-14T18:14:36.998Z,6.41
2018-11-14T18:17:06.455Z,6.47
2018-11-14T18:19:36.477Z,6.31
2018-11-14T18:22:06.566Z,6.22
2018-11-14T18:24:35.240Z,6.19
2018-11-14T18:27:06.721Z,6.14
2018-11-14T18:29:36.670Z,6.10
2018-11-14T18:32:07.266Z,6.02
2018-11-14T18:34:37.018Z,5.95
2018-11-14T18:37:07.045Z,5.93
2018-11-14T18:39:38.909Z,5.87
2018-11-14T18:42:08.931Z,5.85
2018-11-14T18:44:39.157Z,5.79
2018-11-14T18:47:09.267Z,5.80
2018-11-14T18:49:38.694Z,5.72
2018-11-14T18:52:08.593Z,5.76
2018-11-14T18:54:38.217Z,5.74
2018-11-14T18:57:07.709Z,5.72
2018-11-14T18:59:37.973Z,5.63
2018-11-14T19:02:08.488Z,5.57
2018-11-14T19:04:38.269Z,5.57
2018-11-14T19:07:07.919Z,5.54
2018-11-14T19:09:38.043Z,5.51
2018-11-14T19:12:08.003Z,5.46
2018-11-14T19:14:37.733Z,5.45
2018-11-14T19:17:13.331Z,5.40
2018-11-14T19:19:43.964Z,5.36
2018-11-14T19:22:13.356Z,5.39
2018-11-14T19:24:43.249Z,5.35
2018-11-14T19:27:13.103Z,5.36
2018-11-14T19:29:43.239Z,5.30
2018-11-14T19:32:13.216Z,5.25
2018-11-14T19:34:42.859Z,5.26
2018-11-14T19:37:13.597Z,5.32
2018-11-14T19:39:43.198Z,5.46
2018-11-14T19:42:12.861Z,5.44
2018-11-14T19:44:42.842Z,5.48
2018-11-14T19:47:12.757Z,5.43
2018-11-14T19:49:42.592Z,5.52
2018-11-14T19:52:12.803Z,5.67
2018-11-14T19:54:42.512Z,5.64
2018-11-14T19:57:12.542Z,5.60
2018-11-14T19:59:42.453Z,5.54
2018-11-14T20:02:13.719Z,5.53
2018-11-14T20:04:44.543Z,5.45
2018-11-14T20:07:14.927Z,5.40
2018-11-14T20:09:45.101Z,5.31
2018-11-14T20:12:15.227Z,5.25
2018-11-14T20:14:46.175Z,5.21
2018-11-14T20:17:17.485Z,5.13
2018-11-14T20:19:47.744Z,5.06
2018-11-14T20:22:17.966Z,5.04
2018-11-14T20:24:47.988Z,4.98
2018-11-14T20:27:17.804Z,4.93
2018-11-14T20:29:47.822Z,4.87
2018-11-14T20:32:17.750Z,4.85
2018-11-14T20:34:47.558Z,4.79
2018-11-14T20:37:17.099Z,4.79
2018-11-14T20:39:47.092Z,4.71
2018-11-14T20:42:17.415Z,4.70
2018-11-14T20:44:47.439Z,4.70
2018-11-14T20:47:17.358Z,4.69
2018-11-14T20:49:48.092Z,4.78
2018-11-14T20:52:17.840Z,5.02
2018-11-14T20:54:47.637Z,5.05
2018-11-14T20:57:17.039Z,5.06
2018-11-14T20:59:46.738Z,5.42
2018-11-14T21:02:16.783Z,5.66
2018-11-14T21:04:46.279Z,5.81
2018-11-14T21:07:15.770Z,5.95
2018-11-14T21:09:45.579Z,5.96
2018-11-14T21:12:15.100Z,6.03
2018-11-14T21:14:44.815Z,6.00
2018-11-14T21:17:15.127Z,5.88
2018-11-14T21:19:44.756Z,5.75
2018-11-14T21:22:15.079Z,5.74
2018-11-14T21:24:44.335Z,5.56
2018-11-14T21:27:14.510Z,5.44
2018-11-14T21:29:44.251Z,5.52
2018-11-14T21:32:14.445Z,5.38
2018-11-14T21:34:44.262Z,5.39
2018-11-14T21:37:13.824Z,5.40
2018-11-14T21:39:43.694Z,5.56
2018-11-14T21:42:13.186Z,5.60
2018-11-14T21:44:42.709Z,5.67
2018-11-14T21:47:12.289Z,5.77
2018-11-14T21:49:41.730Z,5.70
2018-11-14T21:52:12.196Z,5.71
2018-11-14T21:54:42.036Z,5.68
2018-11-14T21:57:11.732Z,5.59
2018-11-14T21:59:40.995Z,5.60
2018-11-14T22:02:10.556Z,5.58
2018-11-14T22:04:40.039Z,5.59
2018-11-14T22:07:09.214Z,5.48
2018-11-14T22:09:40.465Z,5.54
2018-11-14T22:12:09.975Z,5.49
2018-11-14T22:14:39.485Z,5.46
2018-11-14T22:17:09.507Z,5.47
2018-11-14T22:19:38.863Z,5.44
2018-11-14T22:22:08.523Z,5.30
2018-11-14T22:24:38.245Z,5.31
2018-11-14T22:27:07.770Z,5.23
2018-11-14T22:29:37.461Z,5.17
2018-11-14T22:32:07.276Z,5.17
2018-11-14T22:34:37.229Z,5.21
2018-11-14T22:37:08.134Z,5.21
2018-11-14T22:39:39.634Z,5.11
2018-11-14T22:42:09.822Z,5.01
2018-11-14T22:44:39.321Z,4.95
2018-11-14T22:47:08.725Z,4.89
2018-11-14T22:49:38.213Z,4.76
2018-11-14T22:52:07.972Z,4.70
2018-11-14T22:54:37.360Z,4.65
2018-11-14T22:57:07.316Z,4.66
2018-11-14T22:59:36.583Z,4.70
2018-11-14T23:02:07.114Z,4.76
2018-11-14T23:04:36.724Z,4.70
2018-11-14T23:07:07.155Z,4.65
2018-11-14T23:09:37.010Z,4.60
2018-11-14T23:12:06.790Z,4.54
2018-11-14T23:14:36.402Z,4.48
2018-11-14T23:17:06.624Z,4.51
2018-11-14T23:19:35.931Z,4.55
2018-11-14T23:22:06.459Z,4.54
2018-11-14T23:24:35.924Z,4.55
2018-11-14T23:27:06.499Z,4.57
2018-11-14T23:29:36.265Z,4.49
2018-11-14T23:32:05.755Z,4.59
2018-11-14T23:34:35.226Z,4.55
2018-11-14T23:37:06.480Z,4.61
2018-11-14T23:39:35.836Z,4.64
2018-11-14T23:42:06.930Z,4.59
2018-11-14T23:44:36.534Z,4.55
2018-11-14T23:47:06.660Z,4.48
2018-11-14T23:49:36.231Z,4.29
2018-11-14T23:52:06.392Z,4.21
2018-11-14T23:54:36.207Z,4.39
2018-11-14T23:57:06.533Z,4.26
2018-11-14T23:59:36.454Z,4.21
